Time;durP1;ratioP1;P1;durP2;ratioP2;P2;SDS_P1;SDS_P2;PMS_P1;PMS_P2;Temp;Humidity;BMP_temperature;BMP_pressure;BME280_temperature;BME280_humidity;BME280_pressure;Samples;Min_cycle;Max_cycle;Signal;HPM_P1;HPM_P2
2023/03/07 00:01:07;;;;;;;5.10;3.57;;;;;;;4.12;100.00;99849.44;5253252;28;20051;-74
2023/03/07 00:03:39;;;;;;;4.40;3.73;;;;;;;4.08;100.00;99850.53;5258334;28;20036;-74
2023/03/07 00:06:10;;;;;;;4.00;3.60;;;;;;;4.07;100.00;99854.00;5276502;28;20063;-74
2023/03/07 00:08:41;;;;;;;6.53;3.20;;;;;;;4.04;100.00;99842.06;5260150;28;20033;-74
2023/03/07 00:11:13;;;;;;;3.97;3.57;;;;;;;3.98;100.00;99843.19;5265475;28;20047;-74
2023/03/07 00:13:44;;;;;;;3.37;2.20;;;;;;;3.99;100.00;99851.81;5277618;28;20111;-74
2023/03/07 00:16:18;;;;;;;3.77;2.20;;;;;;;3.92;100.00;99842.63;5245839;28;20039;-74
2023/03/07 00:18:50;;;;;;;1.70;1.33;;;;;;;3.89;100.00;99842.78;5237710;28;20029;-74
2023/03/07 00:21:22;;;;;;;2.27;1.30;;;;;;;3.83;100.00;99834.41;5237576;28;20486;-74
2023/03/07 00:23:53;;;;;;;2.93;2.00;;;;;;;3.87;100.00;99841.09;5238233;28;20025;-74
2023/03/07 00:26:25;;;;;;;2.60;1.50;;;;;;;3.81;100.00;99843.16;5256154;28;20029;-74
2023/03/07 00:28:57;;;;;;;2.83;1.27;;;;;;;3.78;100.00;99826.03;5256106;28;20056;-74
2023/03/07 00:31:28;;;;;;;1.87;1.60;;;;;;;3.76;100.00;99830.44;5255684;28;20502;-74
2023/03/07 00:33:59;;;;;;;1.97;1.10;;;;;;;3.73;100.00;99826.25;5254448;28;20379;-74
2023/03/07 00:36:30;;;;;;;1.70;1.20;;;;;;;3.65;100.00;99807.63;5256056;28;20353;-74
2023/03/07 00:39:03;;;;;;;2.07;1.37;;;;;;;3.69;100.00;99813.50;5241059;28;20077;-74
2023/03/07 00:41:34;;;;;;;2.20;1.13;;;;;;;3.73;100.00;99820.22;5257053;28;20132;-74
2023/03/07 00:44:06;;;;;;;1.23;1.10;;;;;;;3.73;100.00;99820.22;5274177;28;20111;-74
2023/03/07 00:46:37;;;;;;;1.70;1.20;;;;;;;3.77;100.00;99821.72;5258071;28;20032;-74
2023/03/07 00:49:08;;;;;;;1.40;0.83;;;;;;;3.71;100.00;99811.69;5272176;28;20394;-74
2023/03/07 00:51:39;;;;;;;1.53;1.10;;;;;;;3.73;100.00;99810.72;5275367;28;20124;-74
2023/03/07 00:54:11;;;;;;;1.07;0.93;;;;;;;3.75;100.00;99818.41;5273696;28;20031;-74
2023/03/07 00:56:42;;;;;;;2.30;1.60;;;;;;;3.75;100.00;99816.63;5273701;28;20033;-74
2023/03/07 00:59:15;;;;;;;2.23;1.33;;;;;;;3.76;100.00;99814.88;5254128;28;20123;-74
2023/03/07 01:01:48;;;;;;;2.37;1.60;;;;;;;3.74;100.00;99812.38;5254095;28;20037;-74
2023/03/07 01:04:19;;;;;;;3.57;2.03;;;;;;;3.79;100.00;99819.09;5253812;28;20076;-74
2023/03/07 01:06:51;;;;;;;2.60;1.80;;;;;;;3.72;100.00;99802.97;5253913;28;20322;-74
2023/03/07 01:09:22;;;;;;;2.50;1.90;;;;;;;3.73;100.00;99799.50;5254189;28;20025;-74
2023/03/07 01:11:53;;;;;;;2.40;1.77;;;;;;;3.75;100.00;99803.69;5255365;28;20029;-74
2023/03/07 01:14:25;;;;;;;2.33;1.93;;;;;;;3.75;100.00;99798.50;5254673;28;20048;-74
2023/03/07 01:16:56;;;;;;;2.80;2.20;;;;;;;3.70;100.00;99784.94;5254026;28;20021;-74
2023/03/07 01:19:27;;;;;;;3.87;2.30;;;;;;;3.79;100.00;99788.84;5254303;28;20033;-74
2023/03/07 01:21:59;;;;;;;3.10;2.33;;;;;;;3.80;100.00;99789.69;5257067;28;20687;-74
2023/03/07 01:24:30;;;;;;;3.73;2.20;;;;;;;3.81;100.00;99797.38;5256814;28;20033;-75
2023/03/07 01:27:01;;;;;;;2.50;1.90;;;;;;;3.82;100.00;99793.84;5255989;28;20606;-75
2023/03/07 01:29:32;;;;;;;3.23;2.67;;;;;;;3.80;100.00;99782.75;5255455;28;20056;-75
2023/03/07 01:32:04;;;;;;;2.80;2.50;;;;;;;3.88;100.00;99790.13;5274283;28;20043;-74
2023/03/07 01:34:35;;;;;;;3.70;2.73;;;;;;;3.79;100.00;99778.47;5261904;28;20506;-74
2023/03/07 01:37:07;;;;;;;3.80;2.90;;;;;;;3.76;100.00;99763.09;5271850;28;20025;-74
2023/03/07 01:39:38;;;;;;;5.13;2.60;;;;;;;3.86;100.00;99782.44;5255349;28;20025;-74
2023/03/07 01:42:09;;;;;;;3.77;3.20;;;;;;;3.83;100.00;99761.03;5254294;28;20118;-74
2023/03/07 01:45:07;;;;;;;3.67;2.70;;;;;;;3.90;100.00;99774.50;5254337;28;20107;-74
2023/03/07 01:47:39;;;;;;;3.70;3.00;;;;;;;3.87;100.00;99768.56;5254970;28;20024;-74
2023/03/07 01:50:15;;;;;;;4.33;3.60;;;;;;;3.87;100.00;99765.97;5253716;28;20040;-74
2023/03/07 01:52:50;;;;;;;5.67;3.63;;;;;;;3.86;100.00;99759.13;5254783;28;20067;-74
2023/03/07 01:55:28;;;;;;;4.47;3.90;;;;;;;3.87;100.00;99767.75;5253904;28;20035;-74
2023/03/07 01:58:04;;;;;;;5.37;3.80;;;;;;;3.95;100.00;99764.75;5253029;28;20028;-74
2023/03/07 02:00:38;;;;;;;4.53;4.10;;;;;;;3.90;100.00;99764.16;5254622;28;20037;-74
2023/03/07 02:03:09;;;;;;;5.43;4.17;;;;;;;3.89;100.00;99754.72;5251852;28;20021;-74
2023/03/07 02:05:52;;;;;;;5.40;4.20;;;;;;;3.92;100.00;99751.97;5254399;28;20043;-74
2023/03/07 02:08:28;;;;;;;5.13;4.63;;;;;;;3.90;100.00;99753.78;5254198;28;20040;-73
2023/03/07 02:10:59;;;;;;;6.50;3.93;;;;;;;3.84;100.00;99745.41;5254005;28;20071;-74
2023/03/07 02:13:31;;;;;;;5.30;4.40;;;;;;;3.83;100.00;99743.75;5254336;28;20025;-74
2023/03/07 02:16:04;;;;;;;4.97;4.47;;;;;;;3.85;100.00;99741.94;5251746;28;20057;-73
2023/03/07 02:18:42;;;;;;;5.53;4.43;;;;;;;3.85;100.00;99739.34;5251850;28;20117;-74
2023/03/07 02:21:31;;;;;;;5.30;4.23;;;;;;;3.90;100.00;99739.09;5255264;28;20502;-73
2023/03/07 02:24:06;;;;;;;4.90;4.40;;;;;;;3.87;100.00;99742.66;5237288;28;20041;-73
2023/03/07 02:26:40;;;;;;;4.57;4.07;;;;;;;3.82;100.00;99734.28;5247570;28;20076;-73
2023/03/07 02:29:13;;;;;;;;;;;;;;;3.95;100.00;99738.84;5258174;28;20115;-73
2023/03/07 02:31:45;;;;;;;4.37;3.97;;;;;;;3.89;100.00;99742.63;5258513;28;19924;-73
2023/03/07 02:34:26;;;;;;;7.20;4.17;;;;;;;3.88;100.00;99733.16;5255508;28;20532;-73
2023/03/07 02:37:03;;;;;;;4.70;3.97;;;;;;;3.89;100.00;99729.66;5257482;28;20037;-73
2023/03/07 02:39:36;;;;;;;6.07;3.77;;;;;;;3.84;100.00;99729.88;5258287;28;20391;-73
2023/03/07 02:42:15;;;;;;;4.20;3.37;;;;;;;3.80;100.00;99723.19;5257466;28;20447;-73
2023/03/07 02:44:55;;;;;;;5.00;3.80;;;;;;;3.80;100.00;99720.59;5256683;28;20090;-73
2023/03/07 02:47:27;;;;;;;5.30;3.77;;;;;;;3.81;100.00;99722.25;5257461;28;20033;-73
2023/03/07 02:49:58;;;;;;;6.03;3.13;;;;;;;3.75;100.00;99710.44;5256194;28;20036;-73
2023/03/07 02:52:29;;;;;;;5.53;4.10;;;;;;;3.74;100.00;99715.69;5257730;28;20040;-73
2023/03/07 02:55:00;;;;;;;3.87;3.40;;;;;;;3.72;100.00;99714.94;5257148;28;20061;-74
2023/03/07 02:57:32;;;;;;;4.60;3.67;;;;;;;3.77;100.00;99723.31;5257266;28;20128;-73
2023/03/07 03:00:08;;;;;;;5.10;3.87;;;;;;;3.76;100.00;99716.47;5256377;28;20446;-73
2023/03/07 03:02:40;;;;;;;7.93;4.40;;;;;;;3.71;100.00;99713.25;5257569;28;20025;-73
2023/03/07 03:05:12;;;;;;;6.37;4.07;;;;;;;3.72;100.00;99708.00;5256078;28;20703;-73
2023/03/07 03:07:44;;;;;;;5.40;4.00;;;;;;;3.71;100.00;99713.25;5257403;28;20025;-72
2023/03/07 03:10:16;;;;;;;4.70;3.50;;;;;;;3.67;100.00;99711.72;5257067;28;20082;-72
2023/03/07 03:12:47;;;;;;;4.90;3.30;;;;;;;3.70;100.00;99711.59;5257390;28;20037;-73
2023/03/07 03:15:19;;;;;;;5.40;3.87;;;;;;;3.70;100.00;99715.00;5257065;28;20384;-73
2023/03/07 03:17:52;;;;;;;9.00;4.20;;;;;;;3.66;100.00;99700.56;5256576;28;20029;-74
2023/03/07 03:20:24;;;;;;;4.47;3.77;;;;;;;3.71;100.00;99715.84;5257293;28;20510;-73
2023/03/07 03:22:56;;;;;;;5.10;3.67;;;;;;;3.67;100.00;99706.56;5257514;28;20041;-74
2023/03/07 03:25:27;;;;;;;7.17;4.20;;;;;;;3.66;100.00;99697.13;5256628;28;20036;-74
2023/03/07 03:27:58;;;;;;;6.03;4.23;;;;;;;3.68;100.00;99703.06;5255553;28;20115;-74
2023/03/07 03:30:31;;;;;;;5.53;4.37;;;;;;;3.71;100.00;99705.50;5257049;28;20033;-74
2023/03/07 03:33:02;;;;;;;5.93;4.57;;;;;;;3.71;100.00;99706.34;5254944;28;20060;-73
2023/03/07 03:35:33;;;;;;;5.10;4.10;;;;;;;3.55;100.00;99687.28;5256474;28;20448;-74
2023/03/07 03:38:05;;;;;;;5.67;4.83;;;;;;;3.58;100.00;99690.56;5255116;28;20052;-74
2023/03/07 03:40:37;;;;;;;8.63;5.20;;;;;;;3.74;100.00;99702.75;5256608;28;20037;-74
2023/03/07 03:43:08;;;;;;;6.03;4.73;;;;;;;3.68;100.00;99698.75;5255226;28;20484;-74
2023/03/07 03:45:39;;;;;;;5.83;4.43;;;;;;;3.64;100.00;99681.66;5256158;28;20039;-74
2023/03/07 03:48:11;;;;;;;4.60;4.10;;;;;;;3.71;100.00;99698.56;5254745;28;20052;-74
2023/03/07 03:50:42;;;;;;;4.87;4.00;;;;;;;3.67;100.00;99683.25;5254625;28;20021;-73
2023/03/07 03:53:13;;;;;;;5.70;4.97;;;;;;;3.77;100.00;99692.22;5255903;28;20032;-74
2023/03/07 03:55:45;;;;;;;5.97;4.20;;;;;;;3.79;100.00;99690.41;5255093;28;20550;-74
2023/03/07 03:58:16;;;;;;;5.40;4.43;;;;;;;3.68;100.00;99672.84;5254395;28;20436;-74
2023/03/07 04:00:48;;;;;;;5.07;4.20;;;;;;;3.72;100.00;99670.91;5256216;28;20071;-74
2023/03/07 04:03:19;;;;;;;7.37;4.57;;;;;;;3.69;100.00;99669.31;5255082;28;20499;-74
2023/03/07 04:05:50;;;;;;;7.10;4.90;;;;;;;3.69;100.00;99668.47;5255840;28;20375;-74
2023/03/07 04:08:22;;;;;;;5.03;4.53;;;;;;;3.75;100.00;99669.00;5254268;28;20563;-74
2023/03/07 04:10:53;;;;;;;5.90;4.53;;;;;;;3.73;100.00;99657.06;5256133;28;20056;-74
2023/03/07 04:13:25;;;;;;;6.50;4.83;;;;;;;3.75;100.00;99655.25;5255064;28;20040;-73
2023/03/07 04:15:56;;;;;;;4.93;4.00;;;;;;;3.69;100.00;99645.16;5255914;28;20060;-73
2023/03/07 04:18:27;;;;;;;4.97;3.50;;;;;;;3.72;100.00;99647.59;5254914;28;20033;-73
2023/03/07 04:20:59;;;;;;;4.60;3.80;;;;;;;3.66;100.00;99634.97;5255336;28;20064;-74
2023/03/07 04:23:31;;;;;;;3.57;2.97;;;;;;;3.71;100.00;99640.75;5255247;28;20033;-73
2023/03/07 04:26:05;;;;;;;4.33;3.67;;;;;;;3.69;100.00;99637.41;5254776;28;20456;-74
2023/03/07 04:31:16;;;;;;;4.73;3.30;;;;;;;3.69;100.00;99632.22;5255483;28;20025;-74
2023/03/07 04:33:48;;;;;;;5.10;3.20;;;;;;;3.67;100.00;99637.47;5254644;28;20029;-74
2023/03/07 04:36:21;;;;;;;7.07;3.47;;;;;;;3.69;100.00;99632.22;5254986;28;20060;-73
2023/03/07 04:38:52;;;;;;;4.77;3.43;;;;;;;3.70;100.00;99628.75;5255811;28;20078;-74
2023/03/07 04:41:25;;;;;;;6.03;3.80;;;;;;;3.72;100.00;99621.69;5254870;28;20080;-73
2023/03/07 04:43:56;;;;;;;4.57;3.17;;;;;;;3.69;100.00;99619.28;5255229;28;20052;-74
2023/03/07 04:46:28;;;;;;;4.93;3.47;;;;;;;3.71;100.00;99614.84;5252846;28;20025;-74
2023/03/07 04:48:59;;;;;;;7.23;3.53;;;;;;;3.70;100.00;99616.59;5253286;28;20047;-74
2023/03/07 04:51:30;;;;;;;4.87;3.57;;;;;;;3.65;100.00;99620.38;5253711;28;20021;-74
2023/03/07 04:54:02;;;;;;;5.60;3.60;;;;;;;3.70;100.00;99615.78;5254952;28;20079;-74
2023/03/07 04:56:33;;;;;;;4.27;3.27;;;;;;;3.71;100.00;99617.44;5255103;28;20028;-74
2023/03/07 04:59:04;;;;;;;4.83;3.70;;;;;;;3.62;100.00;99601.47;5254294;28;20024;-74
2023/03/07 05:01:35;;;;;;;4.83;3.33;;;;;;;3.71;100.00;99617.44;5255251;28;20035;-74
2023/03/07 05:04:07;;;;;;;4.77;4.03;;;;;;;3.71;100.00;99615.72;5252793;28;20032;-73
2023/03/07 05:06:38;;;;;;;8.53;3.97;;;;;;;3.69;100.00;99616.69;5244207;28;20022;-73
2023/03/07 05:09:09;;;;;;;5.03;4.27;;;;;;;3.71;100.00;99617.44;5234945;28;20033;-73
2023/03/07 05:11:41;;;;;;;6.07;4.20;;;;;;;3.69;100.00;99616.69;5251577;28;20029;-73
2023/03/07 05:14:12;;;;;;;6.33;3.57;;;;;;;3.68;100.00;99615.03;5254618;28;20044;-74
2023/03/07 05:16:43;;;;;;;7.67;4.23;;;;;;;3.70;100.00;99614.00;5270089;28;20508;-73
2023/03/07 05:19:14;;;;;;;5.77;4.20;;;;;;;3.66;100.00;99606.50;5253636;28;20075;-73
2023/03/07 05:21:49;;;;;;;8.00;4.50;;;;;;;3.66;100.00;99606.50;5254663;28;20031;-73
2023/03/07 05:24:20;;;;;;;6.55;3.60;;;;;;;3.69;100.00;99602.00;5254378;28;20487;-73
2023/03/07 05:26:51;;;;;;;8.53;3.90;;;;;;;3.70;100.00;99595.06;5254966;28;20087;-73
2023/03/07 05:29:23;;;;;;;5.57;3.87;;;;;;;3.67;100.00;99592.63;5252942;28;20035;-73
2023/03/07 05:31:54;;;;;;;5.17;3.87;;;;;;;3.66;100.00;99586.63;5254132;28;20036;-74
2023/03/07 05:34:26;;;;;;;5.97;4.20;;;;;;;3.68;100.00;99578.78;5252171;28;20862;-74
2023/03/07 05:36:57;;;;;;;9.60;4.17;;;;;;;3.68;100.00;99578.78;5253424;28;20114;-74
2023/03/07 05:39:28;;;;;;;6.30;4.27;;;;;;;3.73;100.00;99584.53;5252719;28;20457;-73
2023/03/07 05:41:59;;;;;;;5.43;4.50;;;;;;;3.67;100.00;99572.75;5252833;28;20061;-73
2023/03/07 05:44:31;;;;;;;7.87;4.87;;;;;;;3.69;100.00;99570.91;5229052;28;20061;-73
2023/03/07 05:47:03;;;;;;;6.60;4.70;;;;;;;3.78;100.00;99579.13;5251428;28;20037;-74
2023/03/07 05:49:34;;;;;;;7.77;4.60;;;;;;;3.75;100.00;99585.31;5253161;28;20048;-74
2023/03/07 05:52:06;;;;;;;8.67;4.87;;;;;;;3.74;100.00;99589.66;5233778;28;20044;-74
2023/03/07 05:54:37;;;;;;;7.00;4.40;;;;;;;3.63;100.00;99584.19;5234967;28;20057;-74
2023/03/07 05:57:08;;;;;;;6.80;4.90;;;;;;;3.75;100.00;99580.13;5238992;28;20850;-72
2023/03/07 05:59:39;;;;;;;6.27;4.37;;;;;;;3.78;100.00;99579.13;5223891;28;20091;-72
2023/03/07 06:02:11;;;;;;;6.10;4.70;;;;;;;3.78;100.00;99569.59;5257651;28;20067;-72
2023/03/07 06:04:42;;;;;;;6.80;5.07;;;;;;;3.81;100.00;99572.03;5239686;28;20060;-71
2023/03/07 06:07:13;;;;;;;7.70;5.00;;;;;;;3.71;100.00;99563.06;5258032;28;20083;-72
2023/03/07 06:09:44;;;;;;;7.43;5.67;;;;;;;3.71;100.00;99565.66;5258191;28;20267;-72
2023/03/07 06:12:16;;;;;;;6.00;4.93;;;;;;;3.79;100.00;99580.81;5256599;28;20494;-72
2023/03/07 06:14:47;;;;;;;5.80;4.67;;;;;;;3.70;100.00;99576.94;5238606;28;20033;-72
2023/03/07 06:17:18;;;;;;;5.30;4.20;;;;;;;3.75;100.00;99580.13;5248811;28;20033;-73
2023/03/07 06:19:50;;;;;;;5.23;3.43;;;;;;;3.73;100.00;99579.38;5237342;28;20060;-72
2023/03/07 06:22:21;;;;;;;4.40;3.80;;;;;;;3.73;100.00;99576.78;5237749;28;20029;-72
2023/03/07 06:24:53;;;;;;;5.00;4.30;;;;;;;3.70;100.00;99579.53;5219537;28;20059;-72
2023/03/07 06:27:25;;;;;;;4.90;4.27;;;;;;;3.74;100.00;99573.25;5236951;28;20029;-72
2023/03/07 06:29:56;;;;;;;5.00;4.23;;;;;;;3.65;100.00;99569.41;5237822;28;20024;-73
2023/03/07 06:32:29;;;;;;;6.17;4.27;;;;;;;3.67;100.00;99592.63;5254897;28;20108;-73
2023/03/07 06:35:00;;;;;;;5.20;3.63;;;;;;;3.63;100.00;99603.13;5240925;28;20029;-73
2023/03/07 06:37:32;;;;;;;4.43;3.07;;;;;;;3.56;100.00;99599.19;5237327;28;20040;-73
2023/03/07 06:40:05;;;;;;;4.13;2.87;;;;;;;3.51;100.00;99591.66;5237615;28;20057;-73
2023/03/07 06:42:36;;;;;;;3.97;2.87;;;;;;;3.38;100.00;99581.09;5237011;28;20120;-73
2023/03/07 06:45:08;;;;;;;3.00;2.70;;;;;;;3.32;100.00;99583.97;5236465;28;20037;-73
2023/03/07 06:47:39;;;;;;;3.13;2.40;;;;;;;3.33;100.00;99579.66;5245720;28;20067;-73
2023/03/07 06:50:10;;;;;;;4.07;2.57;;;;;;;3.44;100.00;99572.16;5239175;28;20036;-73
2023/03/07 06:52:42;;;;;;;4.50;3.20;;;;;;;3.37;100.00;99569.06;5257159;28;20041;-73
2023/03/07 06:55:13;;;;;;;4.47;3.60;;;;;;;3.45;100.00;99585.94;5256836;28;20025;-73
2023/03/07 06:57:44;;;;;;;5.30;3.60;;;;;;;3.38;100.00;99572.47;5257495;28;20029;-73
2023/03/07 07:00:16;;;;;;;6.03;4.47;;;;;;;3.45;100.00;99596.31;5255483;28;20439;-73
2023/03/07 07:02:48;;;;;;;4.93;3.93;;;;;;;3.38;100.00;99596.63;5255601;28;20461;-72
2023/03/07 07:05:20;;;;;;;5.23;4.00;;;;;;;3.37;100.00;99594.94;5255399;28;20032;-72
2023/03/07 07:07:51;;;;;;;6.43;4.20;;;;;;;3.31;100.00;99592.66;5256614;28;20510;-73
2023/03/07 07:10:22;;;;;;;5.63;3.90;;;;;;;3.26;100.00;99594.63;5262488;28;20103;-73
2023/03/07 07:12:55;;;;;;;5.70;4.10;;;;;;;3.26;100.00;99599.81;5265529;28;20037;-73
2023/03/07 07:15:26;;;;;;;5.00;4.10;;;;;;;3.20;100.00;99590.59;5255851;28;20048;-73
2023/03/07 07:17:58;;;;;;;5.27;3.90;;;;;;;2.99;100.00;99602.81;5265725;28;20028;-74
2023/03/07 07:20:29;;;;;;;5.30;4.17;;;;;;;3.10;100.00;99597.97;5256434;28;20132;-73
2023/03/07 07:23:00;;;;;;;5.47;4.00;;;;;;;3.16;100.00;99593.41;5255956;28;20032;-73
2023/03/07 07:25:31;;;;;;;7.27;4.60;;;;;;;3.05;100.00;99587.03;5258714;28;20025;-72
2023/03/07 07:28:03;;;;;;;6.43;4.43;;;;;;;3.13;100.00;99591.81;5255511;28;20119;-72
2023/03/07 07:30:34;;;;;;;7.13;4.27;;;;;;;3.10;100.00;99589.38;5255326;28;20202;-73
2023/03/07 07:33:05;;;;;;;6.23;4.60;;;;;;;3.06;100.00;99596.44;5239842;28;20030;-72
2023/03/07 07:35:38;;;;;;;6.00;4.47;;;;;;;3.10;100.00;99610.06;5243627;28;20084;-72
2023/03/07 07:38:09;;;;;;;5.37;4.13;;;;;;;2.98;100.00;99611.50;5252620;28;20059;-72
2023/03/07 07:40:40;;;;;;;5.50;4.70;;;;;;;3.00;100.00;99625.22;5256297;28;20081;-72
2023/03/07 07:43:14;;;;;;;5.63;4.63;;;;;;;2.96;100.00;99634.00;5234040;28;20120;-71
2023/03/07 07:45:45;;;;;;;5.83;4.40;;;;;;;2.83;100.00;99629.41;5243197;28;20663;-71
2023/03/07 07:48:16;;;;;;;5.20;4.03;;;;;;;2.44;100.00;99640.69;5232015;28;20033;-72
2023/03/07 07:50:48;;;;;;;6.53;4.90;;;;;;;2.70;100.00;99644.69;5234432;28;20037;-72
2023/03/07 07:53:19;;;;;;;5.90;4.60;;;;;;;2.55;100.00;99630.69;5241868;28;20041;-74
2023/03/07 07:55:50;;;;;;;6.47;5.53;;;;;;;2.83;100.00;99668.22;5227295;28;20032;-75
2023/03/07 07:58:22;;;;;;;6.37;4.93;;;;;;;2.69;100.00;99637.81;5247463;28;20026;-74
2023/03/07 08:00:53;;;;;;;6.10;4.67;;;;;;;2.70;100.00;99639.50;5252418;28;20029;-73
2023/03/07 08:03:25;;;;;;;5.43;4.57;;;;;;;2.61;100.00;99630.44;5237738;28;20079;-73
2023/03/07 08:05:56;;;;;;;7.23;5.83;;;;;;;2.74;100.00;99641.03;5235795;28;20116;-74
2023/03/07 08:08:27;;;;;;;6.77;6.07;;;;;;;2.85;100.00;99648.28;5252617;28;20108;-72
2023/03/07 08:10:58;;;;;;;7.90;5.20;;;;;;;2.73;100.00;99643.69;5224916;28;20032;-74
2023/03/07 08:13:30;;;;;;;8.27;5.63;;;;;;;2.59;100.00;99647.75;5234911;28;20025;-74
2023/03/07 08:16:13;;;;;;;7.10;5.87;;;;;;;2.76;100.00;99659.91;5240376;28;20432;-73
2023/03/07 08:18:55;;;;;;;8.23;6.17;;;;;;;2.65;100.00;99662.16;5224763;28;20033;-71
2023/03/07 08:21:27;;;;;;;9.20;6.00;;;;;;;2.57;100.00;99664.22;5230325;28;20022;-71
2023/03/07 08:23:58;;;;;;;8.93;5.97;;;;;;;2.74;100.00;99672.06;5232830;28;20030;-72
2023/03/07 08:26:30;;;;;;;7.10;5.90;;;;;;;2.78;100.00;99672.75;5233042;28;20033;-73
2023/03/07 08:29:02;;;;;;;8.00;5.97;;;;;;;2.78;100.00;99658.09;5245241;28;20032;-71
2023/03/07 08:31:33;;;;;;;7.67;5.70;;;;;;;2.66;100.00;99675.00;5218292;28;20091;-72
2023/03/07 08:34:04;;;;;;;6.83;5.87;;;;;;;2.58;100.00;99671.94;5231772;28;20021;-71
2023/03/07 08:36:36;;;;;;;8.83;5.90;;;;;;;2.80;100.00;99678.69;5229783;28;20090;-72
2023/03/07 08:39:07;;;;;;;7.53;6.30;;;;;;;2.89;100.00;99680.03;5235294;28;20025;-72
2023/03/07 08:41:38;;;;;;;7.13;5.10;;;;;;;2.81;100.00;99671.78;5246488;28;20044;-72
2023/03/07 08:44:10;;;;;;;6.90;5.10;;;;;;;2.81;100.00;99679.56;5247000;28;20035;-71
2023/03/07 08:46:41;;;;;;;7.50;5.37;;;;;;;2.84;100.00;99672.50;5252966;28;20036;-71
2023/03/07 08:49:12;;;;;;;5.20;4.53;;;;;;;2.68;100.00;99672.34;5251756;28;20032;-72
2023/03/07 08:51:46;;;;;;;5.13;4.63;;;;;;;2.39;100.00;99669.34;5253147;28;20487;-71
2023/03/07 08:54:18;;;;;;;4.90;4.38;;;;;;;2.62;100.00;99672.63;5252685;28;20035;-71
2023/03/07 08:56:49;;;;;;;5.43;4.63;;;;;;;2.77;100.00;99677.13;5251727;28;20033;-72
2023/03/07 08:59:20;;;;;;;4.93;4.43;;;;;;;2.65;100.00;99675.91;5253186;28;20108;-72
2023/03/07 09:01:51;;;;;;;5.97;4.70;;;;;;;2.71;100.00;99655.84;5253632;28;20953;-72
2023/03/07 09:04:23;;;;;;;5.17;4.67;;;;;;;2.75;100.00;99657.38;5241794;28;20028;-71
2023/03/07 09:06:55;;;;;;;5.50;5.00;;;;;;;2.87;100.00;99662.00;5238358;28;20108;-71
2023/03/07 09:09:28;;;;;;;6.80;6.10;;;;;;;2.84;100.00;99667.31;5252250;28;20029;-73
2023/03/07 09:11:59;;;;;;;6.50;5.63;;;;;;;2.84;100.00;99666.47;5251085;28;20136;-73
2023/03/07 09:14:31;;;;;;;5.93;5.33;;;;;;;2.81;100.00;99666.63;5247813;28;20151;-73
2023/03/07 09:17:03;;;;;;;5.53;5.03;;;;;;;2.88;100.00;99684.34;5252501;28;20044;-73
2023/03/07 09:19:34;;;;;;;6.67;5.40;;;;;;;2.75;100.00;99662.56;5252920;28;20033;-72
2023/03/07 09:22:06;;;;;;;5.70;5.10;;;;;;;2.82;100.00;99689.81;5252091;28;20055;-72
2023/03/07 09:24:37;;;;;;;5.80;5.20;;;;;;;2.92;100.00;99689.38;5252694;28;20483;-73
2023/03/07 09:27:10;;;;;;;6.50;5.40;;;;;;;2.93;100.00;99688.47;5252376;28;20395;-72
2023/03/07 09:29:41;;;;;;;6.97;5.80;;;;;;;2.88;100.00;99689.53;5252543;28;20675;-72
2023/03/07 09:32:12;;;;;;;6.67;5.97;;;;;;;2.88;100.00;99699.06;5266295;28;20025;-73
2023/03/07 09:34:44;;;;;;;6.57;5.67;;;;;;;2.86;100.00;99695.69;5251653;28;20032;-72
2023/03/07 09:37:15;;;;;;;11.43;7.57;;;;;;;2.88;100.00;99699.88;5252601;28;20071;-71
2023/03/07 09:39:49;;;;;;;7.70;6.93;;;;;;;2.92;100.00;99710.06;5249436;28;20952;-71
2023/03/07 09:42:40;;;;;;;8.60;7.70;;;;;;;2.82;100.00;99700.16;5240386;28;20041;-72
2023/03/07 09:45:22;;;;;;;10.67;8.93;;;;;;;2.85;100.00;99684.50;5243820;28;20172;-73
2023/03/07 09:47:57;;;;;;;9.87;8.87;;;;;;;2.89;100.00;99701.56;5247491;28;20051;-72
2023/03/07 09:50:39;;;;;;;10.15;9.15;;;;;;;2.91;100.00;99701.50;5243647;28;20040;-71
2023/03/07 09:53:37;;;;;;;11.37;9.13;;;;;;;2.96;100.00;99699.53;5249325;28;20036;-71
2023/03/07 09:56:20;;;;;;;10.13;9.10;;;;;;;2.91;100.00;99683.38;5229233;28;20119;-71
2023/03/07 09:59:11;;;;;;;14.17;10.97;;;;;;;2.89;100.00;99685.19;5230938;28;20124;-72
2023/03/07 10:01:44;;;;;;;9.23;8.33;;;;;;;2.94;100.00;99696.16;5229484;28;20044;-72
2023/03/07 10:04:25;;;;;;;9.77;8.70;;;;;;;2.86;100.00;99686.16;5250311;28;20033;-71
2023/03/07 10:06:57;;;;;;;10.37;9.27;;;;;;;2.89;100.00;99696.38;5251974;28;20083;-72
2023/03/07 10:09:29;;;;;;;10.00;9.00;;;;;;;2.75;100.00;99667.72;5231059;28;20033;-72
2023/03/07 10:12:23;;;;;;;9.03;8.13;;;;;;;2.87;100.00;99693.03;5222185;28;20034;-72
2023/03/07 10:15:09;;;;;;;9.33;8.33;;;;;;;2.87;100.00;99689.59;5231167;28;20064;-71
2023/03/07 10:18:09;;;;;;;9.73;8.73;;;;;;;2.73;100.00;99670.38;5228282;28;20033;-72
2023/03/07 10:20:51;;;;;;;10.73;8.97;;;;;;;2.90;100.00;99698.06;5231707;28;20037;-72
2023/03/07 10:23:46;;;;;;;10.23;9.17;;;;;;;2.95;100.00;99694.44;5229983;28;20041;-71
2023/03/07 10:26:48;;;;;;;8.83;7.93;;;;;;;3.00;100.00;99697.63;5229262;28;20400;-72
2023/03/07 10:29:25;;;;;;;12.37;7.73;;;;;;;2.93;100.00;99696.25;5230885;28;20017;-71
2023/03/07 10:32:18;;;;;;;8.87;7.67;;;;;;;2.95;100.00;99695.25;5229919;28;20532;-73
2023/03/07 10:35:01;;;;;;;7.20;6.50;;;;;;;2.94;100.00;99696.16;5232178;28;20021;-72
2023/03/07 10:37:49;;;;;;;8.20;6.20;;;;;;;2.94;100.00;99696.16;5230002;28;20061;-73
2023/03/07 10:40:38;;;;;;;7.23;6.53;;;;;;;2.96;100.00;99696.09;5234904;28;20041;-72
2023/03/07 10:43:31;;;;;;;6.70;5.83;;;;;;;2.93;100.00;99685.91;5256267;28;20379;-72
2023/03/07 10:46:21;;;;;;;5.50;4.93;;;;;;;2.93;100.00;99678.13;5255371;28;20040;-73
2023/03/07 10:48:58;;;;;;;5.87;5.27;;;;;;;2.89;100.00;99683.47;5253440;28;20933;-71
2023/03/07 10:51:54;;;;;;;5.10;4.60;;;;;;;3.00;100.00;99689.88;5254414;28;20025;-72
2023/03/07 10:54:33;;;;;;;6.07;5.33;;;;;;;2.93;100.00;99691.06;5237751;28;20024;-72
2023/03/07 10:57:13;;;;;;;5.87;4.80;;;;;;;2.87;100.00;99697.34;5254986;28;20109;-72
2023/03/07 10:59:47;;;;;;;5.27;4.57;;;;;;;2.78;100.00;99688.28;5256934;28;20460;-72
2023/03/07 11:02:26;;;;;;;5.63;4.90;;;;;;;2.85;100.00;99689.66;5254520;28;20032;-72
2023/03/07 11:04:57;;;;;;;4.80;4.30;;;;;;;2.95;100.00;99702.19;5254949;28;20036;-74
2023/03/07 11:07:33;;;;;;;5.00;4.50;;;;;;;2.85;100.00;99694.00;5250847;28;20021;-74
2023/03/07 11:10:32;;;;;;;5.33;4.77;;;;;;;3.08;100.00;99699.84;5254360;28;20013;-74
2023/03/07 11:13:13;;;;;;;6.47;5.73;;;;;;;3.04;100.00;99693.16;5248408;28;20025;-74
2023/03/07 11:15:45;;;;;;;6.00;5.20;;;;;;;3.05;100.00;99700.84;5242087;28;20087;-74
2023/03/07 11:18:27;;;;;;;5.43;3.90;;;;;;;3.08;100.00;99690.34;5236338;28;20053;-73
2023/03/07 11:20:58;;;;;;;5.60;5.00;;;;;;;3.03;100.00;99687.13;5255243;28;20036;-75
2023/03/07 11:23:30;;;;;;;4.90;4.17;;;;;;;3.09;100.00;99696.38;5252247;28;20037;-73
2023/03/07 11:26:21;;;;;;;4.93;4.33;;;;;;;3.16;100.00;99689.16;5235820;28;20021;-72
2023/03/07 11:29:11;;;;;;;5.03;4.40;;;;;;;3.23;100.00;99693.94;5265317;28;20397;-73
2023/03/07 11:31:55;;;;;;;4.90;4.20;;;;;;;3.14;100.00;99690.03;5247689;28;20029;-73
2023/03/07 11:34:49;;;;;;;4.77;4.27;;;;;;;3.18;100.00;99690.75;5245921;28;20030;-72
2023/03/07 11:37:58;;;;;;;4.93;4.37;;;;;;;3.21;100.00;99695.75;5254001;28;20021;-72
2023/03/07 11:40:43;;;;;;;5.10;4.60;;;;;;;3.28;100.00;99701.50;5242647;28;20049;-74
2023/03/07 11:43:20;;;;;;;5.30;4.60;;;;;;;3.30;100.00;99694.50;5239008;28;20024;-73
2023/03/07 11:46:06;;;;;;;4.90;4.40;;;;;;;3.25;100.00;99696.47;5240315;28;20593;-73
2023/03/07 11:48:50;;;;;;;4.83;3.90;;;;;;;3.29;100.00;99689.38;5225271;28;20499;-75
2023/03/07 11:51:49;;;;;;;5.00;4.18;;;;;;;3.41;100.00;99681.03;5240453;28;20044;-73
2023/03/07 11:54:33;;;;;;;3.80;3.40;;;;;;;3.34;100.00;99675.31;5254557;28;20035;-74
2023/03/07 11:57:35;;;;;;;5.00;3.92;;;;;;;3.36;100.00;99675.25;5233552;28;20025;-76
2023/03/07 12:00:32;;;;;;;4.57;3.77;;;;;;;3.42;100.00;99687.06;5235956;28;20043;-74
2023/03/07 12:03:15;;;;;;;4.80;4.23;;;;;;;3.45;100.00;99682.56;5234510;28;20391;-74
2023/03/07 12:05:59;;;;;;;4.43;3.57;;;;;;;3.46;100.00;99679.06;5238555;28;20128;-74
2023/03/07 12:08:56;;;;;;;;;;;;;;;3.60;100.00;99682.72;5241002;28;20128;-74
2023/03/07 12:11:40;;;;;;;4.90;4.20;;;;;;;3.45;100.00;99676.56;5258731;28;19933;-74